Time;durP1;ratioP1;P1;durP2;ratioP2;P2;SDS_P1;SDS_P2;PMS_P1;PMS_P2;Temp;Humidity;BMP_temperature;BMP_pressure;BME280_temperature;BME280_humidity;BME280_pressure;Samples;Min_cycle;Max_cycle;Signal;HPM_P1;HPM_P2
2023/12/27 00:04:39;;;;;;;84.55;54.35;;;;;;;;;;12916316;23;20364;-83
2023/12/27 00:09:41;;;;;;;82.53;54.75;;;;;;;;;;12914727;22;20388;-83
2023/12/27 00:14:45;;;;;;;83.00;54.38;;;;;;;;;;12916014;22;20446;-83
2023/12/27 00:19:47;;;;;;;75.75;51.92;;;;;;;;;;12916117;22;20368;-83
2023/12/27 00:24:50;;;;;;;80.07;54.65;;;;;;;;;;12914664;22;20427;-84
2023/12/27 00:29:54;;;;;;;85.45;55.20;;;;;;;;;;12924683;22;20383;-83
2023/12/27 00:34:56;;;;;;;84.07;54.87;;;;;;;;;;12976792;22;20856;-83
2023/12/27 00:39:58;;;;;;;82.27;55.47;;;;;;;;;;12999181;22;20912;-84
2023/12/27 00:45:02;;;;;;;77.63;52.78;;;;;;;;;;12978846;22;20396;-83
2023/12/27 00:50:06;;;;;;;83.22;53.58;;;;;;;;;;12979214;22;20378;-83
2023/12/27 00:55:08;;;;;;;83.43;53.57;;;;;;;;;;13010472;22;20418;-84
2023/12/27 01:00:14;;;;;;;82.20;55.13;;;;;;;;;;12978923;22;20366;-83
2023/12/27 01:05:16;;;;;;;82.70;55.65;;;;;;;;;;12977366;22;20374;-83
2023/12/27 01:10:19;;;;;;;73.53;52.55;;;;;;;;;;12971164;22;20870;-84
2023/12/27 01:15:23;;;;;;;83.35;54.17;;;;;;;;;;12995331;22;20839;-84
2023/12/27 01:20:25;;;;;;;81.95;54.75;;;;;;;;;;12973506;22;20367;-83
2023/12/27 01:25:27;;;;;;;84.63;56.35;;;;;;;;;;12978536;22;21191;-83
2023/12/27 01:30:31;;;;;;;84.60;56.75;;;;;;;;;;12979092;22;20847;-84
2023/12/27 01:35:33;;;;;;;83.13;55.53;;;;;;;;;;12978589;22;20452;-84
2023/12/27 01:40:36;;;;;;;81.07;54.55;;;;;;;;;;12977465;22;20371;-83
2023/12/27 01:45:40;;;;;;;82.28;53.92;;;;;;;;;;13000550;22;20432;-83
2023/12/27 01:50:43;;;;;;;80.00;53.43;;;;;;;;;;12978438;22;20412;-84
2023/12/27 01:55:48;;;;;;;83.37;56.80;;;;;;;;;;12978259;22;20838;-83
2023/12/27 02:00:53;;;;;;;85.10;57.65;;;;;;;;;;12999417;22;20351;-83
2023/12/27 02:05:57;;;;;;;80.70;55.67;;;;;;;;;;12978330;22;20362;-83
2023/12/27 02:10:59;;;;;;;81.07;54.50;;;;;;;;;;12981609;22;20412;-83
2023/12/27 02:16:04;;;;;;;78.72;53.00;;;;;;;;;;12983238;22;20405;-83
2023/12/27 02:21:07;;;;;;;71.80;50.00;;;;;;;;;;12999746;22;20362;-84
2023/12/27 02:26:11;;;;;;;71.22;48.53;;;;;;;;;;12977878;22;20362;-83
2023/12/27 02:31:13;;;;;;;66.05;46.10;;;;;;;;;;12977765;22;20383;-83
2023/12/27 02:36:16;;;;;;;62.00;43.33;;;;;;;;;;12977163;22;20676;-84
2023/12/27 02:41:20;;;;;;;64.38;45.13;;;;;;;;;;12978240;22;20367;-83
2023/12/27 02:46:22;;;;;;;60.88;41.92;;;;;;;;;;12977576;22;20374;-83
2023/12/27 02:51:25;;;;;;;58.22;40.30;;;;;;;;;;12976633;22;20383;-84
2023/12/27 02:56:28;;;;;;;55.33;39.13;;;;;;;;;;12976284;22;20393;-84
2023/12/27 03:01:31;;;;;;;53.30;38.63;;;;;;;;;;12977677;22;20374;-84
2023/12/27 03:06:33;;;;;;;51.80;35.75;;;;;;;;;;12976939;22;20359;-82
2023/12/27 03:11:37;;;;;;;50.95;34.90;;;;;;;;;;12976854;22;20378;-83
2023/12/27 03:16:39;;;;;;;47.40;32.83;;;;;;;;;;12969954;22;20412;-83
2023/12/27 03:21:42;;;;;;;47.53;32.57;;;;;;;;;;12975211;22;20366;-83
2023/12/27 03:26:45;;;;;;;45.03;30.00;;;;;;;;;;12975885;22;20388;-84
2023/12/27 03:31:48;;;;;;;46.90;31.33;;;;;;;;;;13011457;22;20378;-84
2023/12/27 03:36:50;;;;;;;45.57;30.17;;;;;;;;;;12980559;22;20374;-84
2023/12/27 03:41:54;;;;;;;41.47;28.65;;;;;;;;;;12980644;22;20440;-85
2023/12/27 03:46:56;;;;;;;35.27;23.23;;;;;;;;;;12980682;22;20473;-83
2023/12/27 03:51:59;;;;;;;35.77;22.87;;;;;;;;;;12980080;22;20378;-84
2023/12/27 03:57:02;;;;;;;36.10;22.52;;;;;;;;;;12978373;22;20397;-84
2023/12/27 04:02:05;;;;;;;33.40;22.73;;;;;;;;;;12981231;22;20725;-83
2023/12/27 04:07:07;;;;;;;34.03;21.58;;;;;;;;;;13001661;22;20359;-82
2023/12/27 04:12:11;;;;;;;33.45;21.10;;;;;;;;;;12980197;22;20386;-84
2023/12/27 04:17:14;;;;;;;29.77;19.30;;;;;;;;;;12979840;22;20362;-83
2023/12/27 04:22:16;;;;;;;24.80;17.20;;;;;;;;;;12980971;22;20733;-82
2023/12/27 04:27:20;;;;;;;25.63;16.73;;;;;;;;;;12980477;22;20864;-83
2023/12/27 04:32:22;;;;;;;23.58;15.70;;;;;;;;;;12979647;22;21001;-83
2023/12/27 04:37:25;;;;;;;26.38;16.05;;;;;;;;;;12980261;22;20370;-83
2023/12/27 04:42:28;;;;;;;26.53;15.37;;;;;;;;;;12979598;22;20431;-83
2023/12/27 04:47:31;;;;;;;26.52;15.55;;;;;;;;;;12990562;22;20371;-83
2023/12/27 04:52:33;;;;;;;24.80;15.75;;;;;;;;;;12980200;22;20752;-83
2023/12/27 04:57:38;;;;;;;24.73;15.50;;;;;;;;;;13001241;22;20433;-83
2023/12/27 05:02:40;;;;;;;27.05;16.08;;;;;;;;;;12979825;22;21222;-83
2023/12/27 05:07:43;;;;;;;25.87;15.90;;;;;;;;;;13001387;22;20417;-83
2023/12/27 05:12:46;;;;;;;25.10;15.95;;;;;;;;;;12980066;22;20417;-83
2023/12/27 05:17:49;;;;;;;24.47;16.70;;;;;;;;;;12979172;22;20358;-82
2023/12/27 05:22:51;;;;;;;24.35;16.35;;;;;;;;;;12979751;22;20370;-84
2023/12/27 05:27:55;;;;;;;23.40;14.80;;;;;;;;;;12979757;22;20401;-83
2023/12/27 05:32:58;;;;;;;25.77;15.30;;;;;;;;;;13000576;22;20367;-83
2023/12/27 05:38:00;;;;;;;24.67;15.00;;;;;;;;;;13000852;22;20436;-83
2023/12/27 05:43:05;;;;;;;21.77;15.30;;;;;;;;;;12979306;22;20371;-83
2023/12/27 05:48:09;;;;;;;25.03;15.33;;;;;;;;;;12978701;22;20362;-83
2023/12/27 05:53:11;;;;;;;24.17;15.93;;;;;;;;;;12978956;22;20371;-83
2023/12/27 05:58:15;;;;;;;23.48;14.95;;;;;;;;;;12978947;22;20397;-83
2023/12/27 06:03:17;;;;;;;23.13;16.10;;;;;;;;;;12978509;22;20412;-83
2023/12/27 06:08:21;;;;;;;24.20;15.73;;;;;;;;;;12986405;22;20416;-84
2023/12/27 06:13:24;;;;;;;22.17;14.90;;;;;;;;;;12974161;22;20691;-84
2023/12/27 06:18:27;;;;;;;22.47;14.73;;;;;;;;;;12995154;22;20359;-83
2023/12/27 06:23:29;;;;;;;20.20;13.85;;;;;;;;;;12976483;22;20359;-83
2023/12/27 06:28:33;;;;;;;21.00;13.43;;;;;;;;;;12996475;22;20378;-84
2023/12/27 06:33:36;;;;;;;21.20;12.85;;;;;;;;;;12975646;22;20371;-82
2023/12/27 06:38:40;;;;;;;21.13;13.18;;;;;;;;;;12976317;22;20363;-88
2023/12/27 06:43:44;;;;;;;19.67;13.05;;;;;;;;;;12975104;22;20355;-86
2023/12/27 06:48:46;;;;;;;22.48;14.15;;;;;;;;;;12981100;22;20436;-86
2023/12/27 06:53:48;;;;;;;20.40;13.35;;;;;;;;;;12978623;22;20420;-84
2023/12/27 06:58:52;;;;;;;18.45;12.18;;;;;;;;;;12993245;22;20779;-82
2023/12/27 07:03:55;;;;;;;20.30;12.98;;;;;;;;;;12998776;22;21142;-84
2023/12/27 07:08:57;;;;;;;23.17;13.90;;;;;;;;;;12977665;22;20908;-84
2023/12/27 07:14:01;;;;;;;23.23;14.97;;;;;;;;;;12980265;22;20366;-84
2023/12/27 07:19:03;;;;;;;20.48;13.38;;;;;;;;;;12981304;22;20746;-84
2023/12/27 07:24:06;;;;;;;120.78;48.88;;;;;;;;;;12990478;22;20417;-83
2023/12/27 07:29:10;;;;;;;292.75;89.95;;;;;;;;;;12953933;22;20405;-83
2023/12/27 07:34:13;;;;;;;22.63;13.90;;;;;;;;;;12979005;22;20432;-83
2023/12/27 07:39:15;;;;;;;20.92;13.35;;;;;;;;;;13002927;22;20366;-83
2023/12/27 07:44:20;;;;;;;20.57;13.80;;;;;;;;;;12980887;22;20422;-84
2023/12/27 07:49:24;;;;;;;20.40;13.68;;;;;;;;;;12983106;22;20854;-83
2023/12/27 07:54:27;;;;;;;20.63;13.82;;;;;;;;;;12980405;22;20363;-83
2023/12/27 07:59:32;;;;;;;175.17;65.33;;;;;;;;;;13001725;22;20431;-84
2023/12/27 08:04:34;;;;;;;30.38;15.70;;;;;;;;;;12980770;22;20421;-84
2023/12/27 08:09:36;;;;;;;44.78;20.65;;;;;;;;;;12980234;22;20379;-84
2023/12/27 08:14:40;;;;;;;281.88;114.32;;;;;;;;;;12979113;22;20362;-84
2023/12/27 08:19:43;;;;;;;29.33;17.65;;;;;;;;;;12980419;22;20393;-83
2023/12/27 08:24:45;;;;;;;39.83;22.65;;;;;;;;;;12979753;22;20359;-83
2023/12/27 08:29:49;;;;;;;25.03;15.97;;;;;;;;;;12980140;22;20382;-84
2023/12/27 08:34:51;;;;;;;20.65;13.63;;;;;;;;;;12981200;22;20382;-84
2023/12/27 08:39:53;;;;;;;29.30;17.58;;;;;;;;;;12985775;22;20412;-83
2023/12/27 08:44:57;;;;;;;32.63;19.83;;;;;;;;;;12979364;22;20374;-83
2023/12/27 08:49:59;;;;;;;18.20;11.68;;;;;;;;;;12980149;22;20855;-83
2023/12/27 08:55:05;;;;;;;19.23;12.20;;;;;;;;;;12980661;22;20363;-84
2023/12/27 09:00:11;;;;;;;29.13;15.98;;;;;;;;;;12978672;22;20363;-83
2023/12/27 09:05:13;;;;;;;19.27;12.38;;;;;;;;;;12978605;22;20366;-83
2023/12/27 09:10:15;;;;;;;21.70;13.50;;;;;;;;;;12979088;22;20448;-84
2023/12/27 09:15:19;;;;;;;24.10;14.68;;;;;;;;;;12980149;22;20444;-83
2023/12/27 09:20:22;;;;;;;24.92;15.68;;;;;;;;;;12979588;22;20374;-84
2023/12/27 11:04:30;;;;;;;28.02;17.30;;;;;;;;;;13079344;22;2080672;-86
2023/12/27 11:09:34;;;;;;;27.02;17.45;;;;;;;;;;13174544;22;20422;-87
2023/12/27 11:14:37;;;;;;;30.45;19.92;;;;;;;;;;13176726;22;20358;-86
2023/12/27 11:19:50;;;;;;;24.45;15.68;;;;;;;;;;13174658;22;20424;-84
2023/12/27 11:24:52;;;;;;;22.83;15.17;;;;;;;;;;13173789;22;20377;-85
2023/12/27 11:29:55;;;;;;;30.87;19.03;;;;;;;;;;13175065;22;20358;-86
2023/12/27 11:34:59;;;;;;;36.28;21.05;;;;;;;;;;13174754;22;20389;-86
2023/12/27 11:40:02;;;;;;;26.40;16.42;;;;;;;;;;13174463;22;20415;-86
2023/12/27 11:45:05;;;;;;;20.90;14.63;;;;;;;;;;13174874;22;20378;-85
2023/12/27 11:50:21;;;;;;;24.30;15.85;;;;;;;;;;13174377;22;20369;-86
2023/12/27 11:55:24;;;;;;;24.05;15.45;;;;;;;;;;13175404;22;20415;-86
2023/12/27 12:00:28;;;;;;;25.45;16.02;;;;;;;;;;13196648;22;20349;-85
2023/12/27 12:05:52;;;;;;;23.97;16.10;;;;;;;;;;13172931;22;20370;-87
2023/12/27 12:11:09;;;;;;;23.95;14.27;;;;;;;;;;13174426;22;20354;-85
2023/12/27 12:16:12;;;;;;;21.13;13.18;;;;;;;;;;13196079;22;20357;-86
2023/12/27 12:21:16;;;;;;;20.85;13.65;;;;;;;;;;13169415;22;20729;-86
2023/12/27 12:26:18;;;;;;;21.30;13.23;;;;;;;;;;13175182;22;20439;-85
2023/12/27 12:31:21;;;;;;;23.67;14.30;;;;;;;;;;13163278;22;20446;-84
2023/12/27 12:36:29;;;;;;;19.80;13.93;;;;;;;;;;13162933;22;20403;-85
2023/12/27 12:41:32;;;;;;;23.03;14.47;;;;;;;;;;13180999;22;20369;-84
2023/12/27 12:46:34;;;;;;;18.95;13.45;;;;;;;;;;13163182;22;20374;-85
2023/12/27 12:51:38;;;;;;;27.98;14.75;;;;;;;;;;13162666;22;20494;-84
2023/12/27 12:56:40;;;;;;;21.77;14.40;;;;;;;;;;13165454;22;20378;-86
2023/12/27 13:01:43;;;;;;;22.00;13.85;;;;;;;;;;13192117;22;20353;-84
2023/12/27 13:06:48;;;;;;;22.13;12.20;;;;;;;;;;13195020;22;20997;-86
2023/12/27 13:11:51;;;;;;;19.33;12.00;;;;;;;;;;13173969;22;20354;-86
2023/12/27 13:16:53;;;;;;;18.17;12.23;;;;;;;;;;13172879;22;20353;-87
2023/12/27 13:21:57;;;;;;;18.90;11.57;;;;;;;;;;13194818;22;20354;-86
2023/12/27 13:26:59;;;;;;;20.17;12.10;;;;;;;;;;13193559;22;20406;-86
2023/12/27 13:32:02;;;;;;;20.05;12.85;;;;;;;;;;13172827;22;20415;-86
2023/12/27 13:37:06;;;;;;;20.70;12.93;;;;;;;;;;13172560;22;20693;-86
2023/12/27 13:42:08;;;;;;;19.77;12.73;;;;;;;;;;13172203;22;20366;-86
2023/12/27 13:47:11;;;;;;;22.10;13.43;;;;;;;;;;13193581;22;20369;-85
2023/12/27 13:52:15;;;;;;;23.33;14.35;;;;;;;;;;13172803;22;20388;-86
2023/12/27 13:57:17;;;;;;;25.70;15.70;;;;;;;;;;13172196;22;20418;-87
2023/12/27 14:02:20;;;;;;;31.03;16.77;;;;;;;;;;13172954;22;20365;-87
2023/12/27 14:07:24;;;;;;;31.92;18.40;;;;;;;;;;13188285;22;20365;-86
2023/12/27 14:12:28;;;;;;;30.63;18.10;;;;;;;;;;13166993;22;20357;-84
2023/12/27 14:17:32;;;;;;;30.95;18.20;;;;;;;;;;13168490;22;20357;-84
2023/12/27 14:22:36;;;;;;;29.90;17.67;;;;;;;;;;13164764;22;20350;-84
2023/12/27 14:27:39;;;;;;;26.48;17.10;;;;;;;;;;13166973;22;20377;-85
2023/12/27 14:32:41;;;;;;;26.85;17.70;;;;;;;;;;13166476;22;20408;-85
2023/12/27 14:37:45;;;;;;;30.77;19.33;;;;;;;;;;13166261;22;20863;-84
2023/12/27 14:42:48;;;;;;;26.93;18.20;;;;;;;;;;13166334;22;20366;-84
2023/12/27 14:47:51;;;;;;;29.67;18.88;;;;;;;;;;13165821;22;20438;-85
2023/12/27 14:52:56;;;;;;;34.93;21.13;;;;;;;;;;13187964;22;20357;-84
2023/12/27 14:57:58;;;;;;;32.53;20.45;;;;;;;;;;13166196;22;20362;-84
2023/12/27 15:03:00;;;;;;;33.88;20.85;;;;;;;;;;13166680;22;20493;-84
2023/12/27 15:08:05;;;;;;;33.37;20.23;;;;;;;;;;13162903;22;20446;-84
2023/12/27 15:13:07;;;;;;;35.78;20.67;;;;;;;;;;13164350;22;20362;-83
2023/12/27 15:18:10;;;;;;;35.95;20.83;;;;;;;;;;13164257;22;20962;-83
2023/12/27 15:23:14;;;;;;;35.33;21.40;;;;;;;;;;13165036;22;20358;-84
2023/12/27 15:28:18;;;;;;;38.83;22.38;;;;;;;;;;13163978;22;20381;-85
2023/12/27 15:33:20;;;;;;;31.92;20.40;;;;;;;;;;13166078;22;20410;-85
2023/12/27 15:38:24;;;;;;;36.27;22.67;;;;;;;;;;13160687;22;20358;-86
2023/12/27 15:43:26;;;;;;;38.07;22.93;;;;;;;;;;13159316;22;20740;-86
2023/12/27 15:48:29;;;;;;;37.45;21.80;;;;;;;;;;13165224;22;20404;-87
2023/12/27 15:53:33;;;;;;;41.42;24.75;;;;;;;;;;13170013;22;20357;-86
2023/12/27 15:58:35;;;;;;;38.60;23.38;;;;;;;;;;13168122;22;20362;-88
2023/12/27 16:03:38;;;;;;;37.85;23.45;;;;;;;;;;13160464;22;20436;-85
2023/12/27 16:08:44;;;;;;;36.47;23.38;;;;;;;;;;13156503;22;20435;-84
2023/12/27 16:13:47;;;;;;;34.75;21.88;;;;;;;;;;13158119;22;20381;-84
2023/12/27 16:18:50;;;;;;;39.47;23.20;;;;;;;;;;13157713;22;20373;-86
2023/12/27 16:23:58;;;;;;;35.67;23.52;;;;;;;;;;13157512;22;20930;-85
2023/12/27 16:29:08;;;;;;;45.67;26.23;;;;;;;;;;13159244;22;20450;-85
2023/12/27 16:34:10;;;;;;;42.45;26.13;;;;;;;;;;13161627;22;20361;-87
2023/12/27 16:39:14;;;;;;;41.92;25.33;;;;;;;;;;13162026;22;20446;-88
2023/12/27 16:44:23;;;;;;;43.47;25.73;;;;;;;;;;13163454;22;20423;-87
2023/12/27 16:49:27;;;;;;;45.43;28.73;;;;;;;;;;13165976;22;20370;-87
2023/12/27 16:54:30;;;;;;;49.80;30.73;;;;;;;;;;13164473;22;20670;-87
2023/12/27 16:59:33;;;;;;;54.13;32.23;;;;;;;;;;13175975;22;20370;-85
2023/12/27 17:04:35;;;;;;;50.20;31.23;;;;;;;;;;13166016;22;20365;-86
2023/12/27 17:09:39;;;;;;;51.07;31.50;;;;;;;;;;13166625;22;20535;-88
2023/12/27 17:14:46;;;;;;;55.40;32.85;;;;;;;;;;13166202;22;20825;-88
2023/12/27 17:19:49;;;;;;;48.90;33.20;;;;;;;;;;13164600;22;20366;-87
2023/12/27 17:24:53;;;;;;;52.35;32.60;;;;;;;;;;13160304;22;20403;-86
2023/12/27 17:29:55;;;;;;;46.37;31.03;;;;;;;;;;13164174;22;20377;-87
2023/12/27 17:34:57;;;;;;;48.70;30.70;;;;;;;;;;13164930;22;20388;-86
2023/12/27 17:40:05;;;;;;;52.23;31.73;;;;;;;;;;13161418;22;20434;-87
2023/12/27 17:45:10;;;;;;;49.35;31.48;;;;;;;;;;13162934;22;20439;-89
2023/12/27 17:50:13;;;;;;;46.05;30.33;;;;;;;;;;13169641;22;20377;-88
2023/12/27 17:55:19;;;;;;;49.38;31.92;;;;;;;;;;13169461;22;20442;-89
2023/12/27 18:00:22;;;;;;;48.22;31.75;;;;;;;;;;13168242;22;20377;-89
2023/12/27 18:05:31;;;;;;;46.83;30.65;;;;;;;;;;13168841;22;20377;-88
2023/12/27 18:10:37;;;;;;;47.05;32.22;;;;;;;;;;13167841;22;20374;-89
2023/12/27 18:15:45;;;;;;;53.72;32.95;;;;;;;;;;13169888;22;20373;-89
2023/12/27 18:20:52;;;;;;;49.80;32.03;;;;;;;;;;13165883;22;21046;-89
2023/12/27 18:25:56;;;;;;;54.65;32.78;;;;;;;;;;13170865;22;20377;-88
2023/12/27 18:30:58;;;;;;;57.38;36.20;;;;;;;;;;13193198;22;20451;-88
2023/12/27 18:36:01;;;;;;;50.10;33.33;;;;;;;;;;13168367;22;20365;-87
2023/12/27 18:41:06;;;;;;;52.67;33.50;;;;;;;;;;13167447;22;20377;-87
2023/12/27 18:46:08;;;;;;;115.07;57.83;;;;;;;;;;13170042;22;20369;-88
2023/12/27 18:51:16;;;;;;;93.13;49.17;;;;;;;;;;13168825;22;20374;-87
2023/12/27 18:56:20;;;;;;;61.58;38.35;;;;;;;;;;13170359;22;20361;-87
2023/12/27 19:01:22;;;;;;;68.57;40.77;;;;;;;;;;13167532;22;20377;-86
2023/12/27 19:06:25;;;;;;;70.85;40.90;;;;;;;;;;13163017;22;20419;-87
2023/12/27 19:11:29;;;;;;;67.15;41.75;;;;;;;;;;13178635;22;20414;-87
2023/12/27 19:16:32;;;;;;;66.35;41.13;;;;;;;;;;13165470;22;20458;-86
2023/12/27 19:21:35;;;;;;;61.78;39.50;;;;;;;;;;13165480;22;20404;-86
2023/12/27 19:26:39;;;;;;;67.43;39.70;;;;;;;;;;13165970;22;20388;-88
2023/12/27 19:31:43;;;;;;;62.25;38.92;;;;;;;;;;13187339;22;20697;-87
2023/12/27 19:36:45;;;;;;;62.78;40.50;;;;;;;;;;13166574;22;20374;-87
2023/12/27 19:41:49;;;;;;;65.30;40.45;;;;;;;;;;13165856;22;20370;-87
2023/12/27 19:46:51;;;;;;;60.97;40.38;;;;;;;;;;13171480;22;20745;-87
2023/12/27 19:51:54;;;;;;;61.83;38.92;;;;;;;;;;13165198;22;20436;-86
2023/12/27 19:56:57;;;;;;;60.42;39.83;;;;;;;;;;13167201;22;20377;-87
2023/12/27 20:02:00;;;;;;;61.22;39.17;;;;;;;;;;13166972;22;20459;-87
2023/12/27 20:07:02;;;;;;;61.95;40.58;;;;;;;;;;13180558;22;20373;-87
2023/12/27 20:12:06;;;;;;;62.58;40.10;;;;;;;;;;13182030;22;20918;-88
2023/12/27 20:17:09;;;;;;;61.55;40.05;;;;;;;;;;13168104;22;20378;-87
2023/12/27 20:22:11;;;;;;;63.53;40.00;;;;;;;;;;13166004;22;20431;-88
2023/12/27 20:27:15;;;;;;;62.63;40.95;;;;;;;;;;13167384;22;20399;-87
2023/12/27 20:32:18;;;;;;;60.92;39.70;;;;;;;;;;13167705;22;20740;-88
2023/12/27 20:37:20;;;;;;;58.37;38.70;;;;;;;;;;13166023;22;20365;-87
2023/12/27 20:42:24;;;;;;;60.50;37.83;;;;;;;;;;13166527;22;20450;-88
2023/12/27 20:47:26;;;;;;;62.20;39.17;;;;;;;;;;13167896;22;20377;-88
2023/12/27 20:52:29;;;;;;;65.63;40.88;;;;;;;;;;13165407;22;20370;-86
2023/12/27 20:57:32;;;;;;;72.93;43.55;;;;;;;;;;13178748;22;20365;-87
2023/12/27 21:02:35;;;;;;;74.73;44.97;;;;;;;;;;13166052;22;20778;-88
2023/12/27 21:07:37;;;;;;;70.03;43.10;;;;;;;;;;13162459;22;20399;-86
2023/12/27 21:12:41;;;;;;;71.78;42.00;;;;;;;;;;13162466;22;20373;-87
2023/12/27 21:17:44;;;;;;;65.73;40.07;;;;;;;;;;13164340;22;20373;-86
2023/12/27 21:22:46;;;;;;;64.83;41.07;;;;;;;;;;13163104;22;20825;-87
2023/12/27 21:27:50;;;;;;;62.57;39.73;;;;;;;;;;13163101;22;20381;-86
2023/12/27 21:32:56;;;;;;;63.10;39.67;;;;;;;;;;13163729;22;20748;-86
2023/12/27 21:37:58;;;;;;;66.50;40.67;;;;;;;;;;13164419;22;20365;-87
2023/12/27 21:43:02;;;;;;;63.28;39.55;;;;;;;;;;13162634;22;20373;-87
2023/12/27 21:48:05;;;;;;;63.00;39.08;;;;;;;;;;13163783;22;20381;-86
2023/12/27 21:53:07;;;;;;;65.78;41.22;;;;;;;;;;13174682;22;20422;-86
2023/12/27 21:58:14;;;;;;;67.53;40.37;;;;;;;;;;13164662;22;20505;-85
2023/12/27 22:03:17;;;;;;;62.60;40.05;;;;;;;;;;13163844;22;20369;-87
2023/12/27 22:08:19;;;;;;;69.33;42.00;;;;;;;;;;13164553;22;20373;-86
2023/12/27 22:13:23;;;;;;;67.38;42.60;;;;;;;;;;13164180;22;20373;-86
2023/12/27 22:18:26;;;;;;;67.75;41.55;;;;;;;;;;13162811;22;20358;-86
2023/12/27 22:23:28;;;;;;;66.53;41.90;;;;;;;;;;13165266;22;20399;-87
2023/12/27 22:28:32;;;;;;;66.47;42.78;;;;;;;;;;13163168;22;20450;-87
2023/12/27 22:33:35;;;;;;;67.95;41.13;;;;;;;;;;13164085;22;20373;-87
2023/12/27 22:38:39;;;;;;;69.20;42.20;;;;;;;;;;13166763;22;20462;-87
2023/12/27 22:43:42;;;;;;;63.83;41.22;;;;;;;;;;13166628;22;20373;-86
2023/12/27 22:48:45;;;;;;;66.35;42.25;;;;;;;;;;13167520;22;20455;-86
2023/12/27 22:53:47;;;;;;;74.60;44.30;;;;;;;;;;13167026;22;20370;-86
2023/12/27 22:58:51;;;;;;;77.25;44.47;;;;;;;;;;13181712;22;20922;-87
2023/12/27 23:03:53;;;;;;;75.82;44.70;;;;;;;;;;13165657;22;20373;-86
2023/12/27 23:08:55;;;;;;;71.63;43.75;;;;;;;;;;13165346;22;20446;-85
2023/12/27 23:13:59;;;;;;;73.93;44.17;;;;;;;;;;13169217;22;20366;-87
2023/12/27 23:19:01;;;;;;;78.80;48.47;;;;;;;;;;13173861;22;20354;-87
2023/12/27 23:24:05;;;;;;;71.25;45.15;;;;;;;;;;13175261;22;20374;-85
2023/12/27 23:29:08;;;;;;;76.50;46.55;;;;;;;;;;13174616;22;20377;-85
2023/12/27 23:34:11;;;;;;;69.43;42.50;;;;;;;;;;13173998;22;20362;-84
2023/12/27 23:39:14;;;;;;;65.80;42.00;;;;;;;;;;13173634;22;20418;-85
2023/12/27 23:44:18;;;;;;;70.87;42.77;;;;;;;;;;13195822;22;20451;-85
2023/12/27 23:49:20;;;;;;;70.68;42.88;;;;;;;;;;13172727;22;20381;-86
2023/12/27 23:54:23;;;;;;;71.55;43.53;;;;;;;;;;13172044;22;20424;-86
2023/12/27 23:59:26;;;;;;;68.43;43.70;;;;;;;;;;13175669;22;20419;-86
